sensor_id;sensor_type;location;lat;lon;timestamp;temperature;humidity
16879;DHT22;8556;52.218;9.884;2022-10-16T00:01:49;13.50;99.90
16879;DHT22;8556;52.218;9.884;2022-10-16T00:04:16;13.40;99.90
16879;DHT22;8556;52.218;9.884;2022-10-16T00:06:43;13.50;99.90
16879;DHT22;8556;52.218;9.884;2022-10-16T00:09:10;13.50;99.90
16879;DHT22;8556;52.218;9.884;2022-10-16T00:11:38;13.40;99.90
16879;DHT22;8556;52.218;9.884;2022-10-16T00:14:09;13.40;99.90
16879;DHT22;8556;52.218;9.884;2022-10-16T00:16:39;13.50;99.90
16879;DHT22;8556;52.218;9.884;2022-10-16T00:19:06;13.50;99.90
16879;DHT22;8556;52.218;9.884;2022-10-16T00:21:33;13.40;99.90
16879;DHT22;8556;52.218;9.884;2022-10-16T00:24:02;13.40;99.90
16879;DHT22;8556;52.218;9.884;2022-10-16T00:26:31;13.50;99.90
16879;DHT22;8556;52.218;9.884;2022-10-16T00:28:58;13.20;99.90
16879;DHT22;8556;52.218;9.884;2022-10-16T00:31:26;13.30;99.90
16879;DHT22;8556;52.218;9.884;2022-10-16T00:33:54;13.30;99.90
16879;DHT22;8556;52.218;9.884;2022-10-16T00:36:23;13.20;99.90
16879;DHT22;8556;52.218;9.884;2022-10-16T00:38:51;13.30;99.90
16879;DHT22;8556;52.218;9.884;2022-10-16T00:41:21;13.20;99.90
16879;DHT22;8556;52.218;9.884;2022-10-16T00:43:50;13.20;99.90
16879;DHT22;8556;52.218;9.884;2022-10-16T00:46:19;13.20;99.90
16879;DHT22;8556;52.218;9.884;2022-10-16T00:48:51;13.20;99.90
16879;DHT22;8556;52.218;9.884;2022-10-16T00:51:23;13.20;99.90
16879;DHT22;8556;52.218;9.884;2022-10-16T00:53:52;13.20;99.90
16879;DHT22;8556;52.218;9.884;2022-10-16T00:56:19;13.20;99.90
16879;DHT22;8556;52.218;9.884;2022-10-16T00:58:46;13.20;99.90
16879;DHT22;8556;52.218;9.884;2022-10-16T01:01:13;13.20;99.90
16879;DHT22;8556;52.218;9.884;2022-10-16T01:03:40;13.20;99.90
16879;DHT22;8556;52.218;9.884;2022-10-16T01:06:21;13.20;99.90
16879;DHT22;8556;52.218;9.884;2022-10-16T01:09:05;13.20;99.90
16879;DHT22;8556;52.218;9.884;2022-10-16T01:11:37;13.20;99.90
16879;DHT22;8556;52.218;9.884;2022-10-16T01:14:11;13.30;99.90
16879;DHT22;8556;52.218;9.884;2022-10-16T01:16:43;13.20;99.90
16879;DHT22;8556;52.218;9.884;2022-10-16T01:19:15;13.20;99.90
16879;DHT22;8556;52.218;9.884;2022-10-16T01:21:47;13.00;99.90
16879;DHT22;8556;52.218;9.884;2022-10-16T01:24:26;13.20;99.90
16879;DHT22;8556;52.218;9.884;2022-10-16T01:27:12;13.20;99.90
16879;DHT22;8556;52.218;9.884;2022-10-16T01:29:49;13.10;99.90
16879;DHT22;8556;52.218;9.884;2022-10-16T01:32:25;13.10;99.90
16879;DHT22;8556;52.218;9.884;2022-10-16T01:34:59;13.10;99.90
16879;DHT22;8556;52.218;9.884;2022-10-16T01:37:33;13.20;99.90
16879;DHT22;8556;52.218;9.884;2022-10-16T01:40:04;13.10;99.90
16879;DHT22;8556;52.218;9.884;2022-10-16T01:42:35;13.20;99.90
16879;DHT22;8556;52.218;9.884;2022-10-16T01:45:05;13.10;99.90
16879;DHT22;8556;52.218;9.884;2022-10-16T01:47:33;13.00;99.90
16879;DHT22;8556;52.218;9.884;2022-10-16T01:50:04;13.00;99.90
16879;DHT22;8556;52.218;9.884;2022-10-16T01:52:34;12.90;99.90
16879;DHT22;8556;52.218;9.884;2022-10-16T01:55:04;12.90;99.90
16879;DHT22;8556;52.218;9.884;2022-10-16T01:57:36;12.80;99.90
16879;DHT22;8556;52.218;9.884;2022-10-16T02:00:08;12.80;99.90
16879;DHT22;8556;52.218;9.884;2022-10-16T02:02:36;12.80;99.90
16879;DHT22;8556;52.218;9.884;2022-10-16T02:05:12;12.90;99.90
16879;DHT22;8556;52.218;9.884;2022-10-16T02:07:42;12.90;99.90
16879;DHT22;8556;52.218;9.884;2022-10-16T02:10:09;12.90;99.90
16879;DHT22;8556;52.218;9.884;2022-10-16T02:12:41;12.90;99.90
16879;DHT22;8556;52.218;9.884;2022-10-16T02:15:09;12.90;99.90
16879;DHT22;8556;52.218;9.884;2022-10-16T02:17:36;12.80;99.90
16879;DHT22;8556;52.218;9.884;2022-10-16T02:20:04;12.90;99.90
16879;DHT22;8556;52.218;9.884;2022-10-16T02:22:35;12.90;99.90
16879;DHT22;8556;52.218;9.884;2022-10-16T02:25:06;12.90;99.90
16879;DHT22;8556;52.218;9.884;2022-10-16T02:27:42;13.00;99.90
16879;DHT22;8556;52.218;9.884;2022-10-16T02:30:14;13.10;99.90
16879;DHT22;8556;52.218;9.884;2022-10-16T02:32:45;13.00;99.90
16879;DHT22;8556;52.218;9.884;2022-10-16T02:35:15;12.80;99.90
16879;DHT22;8556;52.218;9.884;2022-10-16T02:37:44;12.80;99.90
16879;DHT22;8556;52.218;9.884;2022-10-16T02:40:12;12.80;99.90
16879;DHT22;8556;52.218;9.884;2022-10-16T02:42:41;12.90;99.90
16879;DHT22;8556;52.218;9.884;2022-10-16T02:45:10;12.80;99.90
16879;DHT22;8556;52.218;9.884;2022-10-16T02:47:37;12.80;99.90
16879;DHT22;8556;52.218;9.884;2022-10-16T02:50:08;12.80;99.90
16879;DHT22;8556;52.218;9.884;2022-10-16T02:52:41;12.80;99.90
16879;DHT22;8556;52.218;9.884;2022-10-16T02:55:17;12.80;99.90
16879;DHT22;8556;52.218;9.884;2022-10-16T02:57:49;13.10;99.90
16879;DHT22;8556;52.218;9.884;2022-10-16T03:00:33;12.80;99.90
16879;DHT22;8556;52.218;9.884;2022-10-16T03:03:07;12.80;99.90
16879;DHT22;8556;52.218;9.884;2022-10-16T03:05:37;12.60;99.90
16879;DHT22;8556;52.218;9.884;2022-10-16T03:08:04;12.70;99.90
16879;DHT22;8556;52.218;9.884;2022-10-16T03:10:34;12.70;99.90
16879;DHT22;8556;52.218;9.884;2022-10-16T03:13:04;12.70;99.90
16879;DHT22;8556;52.218;9.884;2022-10-16T03:15:47;12.80;99.90
16879;DHT22;8556;52.218;9.884;2022-10-16T03:18:14;12.80;99.90
16879;DHT22;8556;52.218;9.884;2022-10-16T03:20:47;12.90;99.90
16879;DHT22;8556;52.218;9.884;2022-10-16T03:23:17;13.00;99.90
16879;DHT22;8556;52.218;9.884;2022-10-16T03:25:55;12.90;99.90
16879;DHT22;8556;52.218;9.884;2022-10-16T03:28:26;13.00;99.90
16879;DHT22;8556;52.218;9.884;2022-10-16T03:30:56;13.00;99.90
16879;DHT22;8556;52.218;9.884;2022-10-16T03:33:30;13.30;99.90
16879;DHT22;8556;52.218;9.884;2022-10-16T03:36:00;13.30;99.90
16879;DHT22;8556;52.218;9.884;2022-10-16T03:38:38;13.20;99.90
16879;DHT22;8556;52.218;9.884;2022-10-16T03:41:08;13.00;99.90
16879;DHT22;8556;52.218;9.884;2022-10-16T03:43:42;13.30;99.90
16879;DHT22;8556;52.218;9.884;2022-10-16T03:46:11;13.20;99.90
16879;DHT22;8556;52.218;9.884;2022-10-16T03:48:48;13.20;99.90
16879;DHT22;8556;52.218;9.884;2022-10-16T03:51:23;13.20;99.90
16879;DHT22;8556;52.218;9.884;2022-10-16T03:53:55;13.30;99.90
16879;DHT22;8556;52.218;9.884;2022-10-16T03:56:27;13.50;99.90
16879;DHT22;8556;52.218;9.884;2022-10-16T03:59:07;13.50;99.90
16879;DHT22;8556;52.218;9.884;2022-10-16T04:01:38;13.40;99.90
16879;DHT22;8556;52.218;9.884;2022-10-16T04:04:05;13.10;99.90
16879;DHT22;8556;52.218;9.884;2022-10-16T04:06:41;13.10;99.90
16879;DHT22;8556;52.218;9.884;2022-10-16T04:09:14;13.10;99.90
16879;DHT22;8556;52.218;9.884;2022-10-16T04:11:58;13.20;99.90
16879;DHT22;8556;52.218;9.884;2022-10-16T04:14:31;13.10;99.90
16879;DHT22;8556;52.218;9.884;2022-10-16T04:17:00;13.40;99.90
16879;DHT22;8556;52.218;9.884;2022-10-16T04:19:44;13.30;99.90
16879;DHT22;8556;52.218;9.884;2022-10-16T04:22:23;13.10;99.90
16879;DHT22;8556;52.218;9.884;2022-10-16T04:24:50;13.00;99.90
16879;DHT22;8556;52.218;9.884;2022-10-16T04:27:16;13.10;99.90
16879;DHT22;8556;52.218;9.884;2022-10-16T04:29:45;13.00;99.90
16879;DHT22;8556;52.218;9.884;2022-10-16T04:32:12;12.90;99.90
16879;DHT22;8556;52.218;9.884;2022-10-16T04:34:39;12.80;99.90
16879;DHT22;8556;52.218;9.884;2022-10-16T04:37:06;12.80;99.90
16879;DHT22;8556;52.218;9.884;2022-10-16T04:39:33;12.90;99.90
16879;DHT22;8556;52.218;9.884;2022-10-16T04:42:00;12.90;99.90
16879;DHT22;8556;52.218;9.884;2022-10-16T04:44:27;12.90;99.90
16879;DHT22;8556;52.218;9.884;2022-10-16T04:46:55;12.80;99.90
16879;DHT22;8556;52.218;9.884;2022-10-16T04:49:25;12.80;99.90
16879;DHT22;8556;52.218;9.884;2022-10-16T04:52:00;12.80;99.90
16879;DHT22;8556;52.218;9.884;2022-10-16T04:54:42;13.00;99.90
16879;DHT22;8556;52.218;9.884;2022-10-16T04:57:13;12.80;99.90
16879;DHT22;8556;52.218;9.884;2022-10-16T04:59:43;12.80;99.90
16879;DHT22;8556;52.218;9.884;2022-10-16T05:02:26;12.80;99.90
16879;DHT22;8556;52.218;9.884;2022-10-16T05:04:55;12.80;99.90
16879;DHT22;8556;52.218;9.884;2022-10-16T05:07:45;12.90;99.90
16879;DHT22;8556;52.218;9.884;2022-10-16T05:10:21;12.90;99.90
16879;DHT22;8556;52.218;9.884;2022-10-16T05:12:59;12.90;99.90
16879;DHT22;8556;52.218;9.884;2022-10-16T05:15:32;12.90;99.90
16879;DHT22;8556;52.218;9.884;2022-10-16T05:18:01;12.90;99.90
16879;DHT22;8556;52.218;9.884;2022-10-16T05:20:34;13.00;99.90
16879;DHT22;8556;52.218;9.884;2022-10-16T05:23:03;12.80;99.90
16879;DHT22;8556;52.218;9.884;2022-10-16T05:25:39;12.80;99.90
16879;DHT22;8556;52.218;9.884;2022-10-16T05:28:08;12.80;99.90
16879;DHT22;8556;52.218;9.884;2022-10-16T05:30:43;12.70;99.90
16879;DHT22;8556;52.218;9.884;2022-10-16T05:33:15;12.70;99.90
16879;DHT22;8556;52.218;9.884;2022-10-16T05:35:44;12.60;99.90
16879;DHT22;8556;52.218;9.884;2022-10-16T05:38:20;12.70;99.90
16879;DHT22;8556;52.218;9.884;2022-10-16T05:40:55;12.60;99.90
16879;DHT22;8556;52.218;9.884;2022-10-16T05:43:23;12.60;99.90
16879;DHT22;8556;52.218;9.884;2022-10-16T05:45:54;12.60;99.90
16879;DHT22;8556;52.218;9.884;2022-10-16T05:48:27;12.50;99.90
16879;DHT22;8556;52.218;9.884;2022-10-16T05:50:57;12.40;99.90
16879;DHT22;8556;52.218;9.884;2022-10-16T05:53:28;12.40;99.90
16879;DHT22;8556;52.218;9.884;2022-10-16T05:55:58;12.40;99.90
16879;DHT22;8556;52.218;9.884;2022-10-16T05:58:31;12.40;99.90
16879;DHT22;8556;52.218;9.884;2022-10-16T06:01:03;12.40;99.90
16879;DHT22;8556;52.218;9.884;2022-10-16T06:03:31;12.40;99.90
16879;DHT22;8556;52.218;9.884;2022-10-16T06:05:58;12.50;99.90
16879;DHT22;8556;52.218;9.884;2022-10-16T06:08:24;12.50;99.90
16879;DHT22;8556;52.218;9.884;2022-10-16T06:11:00;12.60;99.90
16879;DHT22;8556;52.218;9.884;2022-10-16T06:13:27;12.60;99.90
16879;DHT22;8556;52.218;9.884;2022-10-16T06:15:56;12.50;99.90
16879;DHT22;8556;52.218;9.884;2022-10-16T06:18:23;12.50;99.90
16879;DHT22;8556;52.218;9.884;2022-10-16T06:20:52;12.60;99.90
16879;DHT22;8556;52.218;9.884;2022-10-16T06:23:19;12.70;99.90
16879;DHT22;8556;52.218;9.884;2022-10-16T06:25:45;12.80;99.90
16879;DHT22;8556;52.218;9.884;2022-10-16T06:28:13;13.00;99.90
16879;DHT22;8556;52.218;9.884;2022-10-16T06:30:40;13.10;99.90
16879;DHT22;8556;52.218;9.884;2022-10-16T06:33:09;13.20;99.90
16879;DHT22;8556;52.218;9.884;2022-10-16T06:35:35;13.30;99.90
16879;DHT22;8556;52.218;9.884;2022-10-16T06:38:04;13.20;99.90
16879;DHT22;8556;52.218;9.884;2022-10-16T06:40:30;13.20;99.90
16879;DHT22;8556;52.218;9.884;2022-10-16T06:42:57;13.10;99.90
16879;DHT22;8556;52.218;9.884;2022-10-16T06:45:24;13.00;99.90
16879;DHT22;8556;52.218;9.884;2022-10-16T06:47:51;13.10;99.90
16879;DHT22;8556;52.218;9.884;2022-10-16T06:50:17;13.20;99.90
16879;DHT22;8556;52.218;9.884;2022-10-16T06:52:44;13.70;99.90
16879;DHT22;8556;52.218;9.884;2022-10-16T06:55:12;13.30;99.90
16879;DHT22;8556;52.218;9.884;2022-10-16T06:57:42;13.40;99.90
16879;DHT22;8556;52.218;9.884;2022-10-16T07:00:14;13.60;99.90
16879;DHT22;8556;52.218;9.884;2022-10-16T07:02:41;13.60;99.90
16879;DHT22;8556;52.218;9.884;2022-10-16T07:05:08;13.80;99.90
16879;DHT22;8556;52.218;9.884;2022-10-16T07:07:35;14.00;99.90
16879;DHT22;8556;52.218;9.884;2022-10-16T07:10:05;14.20;99.90
16879;DHT22;8556;52.218;9.884;2022-10-16T07:12:36;14.30;99.90
16879;DHT22;8556;52.218;9.884;2022-10-16T07:15:03;14.40;99.90
16879;DHT22;8556;52.218;9.884;2022-10-16T07:17:30;14.50;99.90
16879;DHT22;8556;52.218;9.884;2022-10-16T07:19:57;14.90;99.90
16879;DHT22;8556;52.218;9.884;2022-10-16T07:22:28;15.00;99.90
16879;DHT22;8556;52.218;9.884;2022-10-16T07:24:55;15.20;99.90
16879;DHT22;8556;52.218;9.884;2022-10-16T07:27:27;15.20;99.90
16879;DHT22;8556;52.218;9.884;2022-10-16T07:30:00;15.30;99.90
16879;DHT22;8556;52.218;9.884;2022-10-16T07:32:31;15.40;99.90
16879;DHT22;8556;52.218;9.884;2022-10-16T07:35:00;15.50;99.90
16879;DHT22;8556;52.218;9.884;2022-10-16T07:37:30;15.50;99.90
16879;DHT22;8556;52.218;9.884;2022-10-16T07:40:00;15.60;99.90
16879;DHT22;8556;52.218;9.884;2022-10-16T07:42:30;15.70;99.90
16879;DHT22;8556;52.218;9.884;2022-10-16T07:44:58;15.80;99.90
16879;DHT22;8556;52.218;9.884;2022-10-16T07:47:25;15.80;99.90
16879;DHT22;8556;52.218;9.884;2022-10-16T07:49:52;15.90;99.90
16879;DHT22;8556;52.218;9.884;2022-10-16T07:52:19;16.20;99.90
16879;DHT22;8556;52.218;9.884;2022-10-16T07:54:46;16.20;99.90
16879;DHT22;8556;52.218;9.884;2022-10-16T07:57:13;16.30;99.90
16879;DHT22;8556;52.218;9.884;2022-10-16T07:59:44;16.30;99.90
16879;DHT22;8556;52.218;9.884;2022-10-16T08:02:13;16.30;99.90
16879;DHT22;8556;52.218;9.884;2022-10-16T08:04:43;16.30;99.90
16879;DHT22;8556;52.218;9.884;2022-10-16T08:07:18;16.20;99.90
16879;DHT22;8556;52.218;9.884;2022-10-16T08:09:49;16.20;99.90
16879;DHT22;8556;52.218;9.884;2022-10-16T08:12:19;16.20;99.90
16879;DHT22;8556;52.218;9.884;2022-10-16T08:14:46;16.30;99.90
16879;DHT22;8556;52.218;9.884;2022-10-16T08:17:17;16.30;99.90
16879;DHT22;8556;52.218;9.884;2022-10-16T08:19:48;16.30;99.90
16879;DHT22;8556;52.218;9.884;2022-10-16T08:22:20;16.40;99.90
16879;DHT22;8556;52.218;9.884;2022-10-16T08:24:49;16.40;99.90
16879;DHT22;8556;52.218;9.884;2022-10-16T08:27:18;16.50;99.90
16879;DHT22;8556;52.218;9.884;2022-10-16T08:29:48;16.60;99.90
16879;DHT22;8556;52.218;9.884;2022-10-16T08:32:17;16.60;99.90
16879;DHT22;8556;52.218;9.884;2022-10-16T08:34:46;16.50;99.90
16879;DHT22;8556;52.218;9.884;2022-10-16T08:37:12;16.50;99.90
16879;DHT22;8556;52.218;9.884;2022-10-16T08:39:40;16.60;99.90
16879;DHT22;8556;52.218;9.884;2022-10-16T08:42:19;16.70;99.90
16879;DHT22;8556;52.218;9.884;2022-10-16T08:45:04;16.80;99.90
16879;DHT22;8556;52.218;9.884;2022-10-16T08:47:45;16.80;99.90
16879;DHT22;8556;52.218;9.884;2022-10-16T08:50:18;17.00;99.90
16879;DHT22;8556;52.218;9.884;2022-10-16T08:52:47;17.10;99.90
16879;DHT22;8556;52.218;9.884;2022-10-16T08:55:37;17.00;99.90
16879;DHT22;8556;52.218;9.884;2022-10-16T08:58:11;17.20;99.90
16879;DHT22;8556;52.218;9.884;2022-10-16T09:00:44;17.00;99.90
16879;DHT22;8556;52.218;9.884;2022-10-16T09:03:21;16.90;99.90
16879;DHT22;8556;52.218;9.884;2022-10-16T09:05:59;16.80;99.90
16879;DHT22;8556;52.218;9.884;2022-10-16T09:08:35;16.80;99.90
16879;DHT22;8556;52.218;9.884;2022-10-16T09:11:09;16.70;99.90
16879;DHT22;8556;52.218;9.884;2022-10-16T09:13:48;16.70;99.90
16879;DHT22;8556;52.218;9.884;2022-10-16T09:16:19;16.80;99.90
16879;DHT22;8556;52.218;9.884;2022-10-16T09:18:56;16.90;99.90
16879;DHT22;8556;52.218;9.884;2022-10-16T09:21:29;16.90;99.90
16879;DHT22;8556;52.218;9.884;2022-10-16T09:23:59;17.00;99.90
16879;DHT22;8556;52.218;9.884;2022-10-16T09:26:32;17.20;99.90
16879;DHT22;8556;52.218;9.884;2022-10-16T09:28:59;17.40;52.50
16879;DHT22;8556;52.218;9.884;2022-10-16T09:31:26;17.40;9.20
16879;DHT22;8556;52.218;9.884;2022-10-16T09:33:59;17.40;1.00
16879;DHT22;8556;52.218;9.884;2022-10-16T09:36:36;17.50;1.00
16879;DHT22;8556;52.218;9.884;2022-10-16T09:39:08;17.60;1.00
16879;DHT22;8556;52.218;9.884;2022-10-16T09:41:40;17.70;99.90
16879;DHT22;8556;52.218;9.884;2022-10-16T09:44:18;18.00;1.00
16879;DHT22;8556;52.218;9.884;2022-10-16T09:46:49;18.20;1.00
16879;DHT22;8556;52.218;9.884;2022-10-16T09:49:28;18.40;99.90
16879;DHT22;8556;52.218;9.884;2022-10-16T09:52:05;18.60;99.90
16879;DHT22;8556;52.218;9.884;2022-10-16T09:54:32;18.80;1.00
16879;DHT22;8556;52.218;9.884;2022-10-16T09:57:05;18.80;1.00
16879;DHT22;8556;52.218;9.884;2022-10-16T09:59:32;19.20;99.90
16879;DHT22;8556;52.218;9.884;2022-10-16T10:02:11;19.20;1.00
16879;DHT22;8556;52.218;9.884;2022-10-16T10:04:50;19.50;1.00
16879;DHT22;8556;52.218;9.884;2022-10-16T10:07:24;19.60;99.90
16879;DHT22;8556;52.218;9.884;2022-10-16T10:09:55;19.80;99.90
16879;DHT22;8556;52.218;9.884;2022-10-16T10:12:24;19.90;1.00
16879;DHT22;8556;52.218;9.884;2022-10-16T10:14:54;20.20;1.00
16879;DHT22;8556;52.218;9.884;2022-10-16T10:17:23;20.00;1.00
16879;DHT22;8556;52.218;9.884;2022-10-16T10:19:55;20.10;1.00
16879;DHT22;8556;52.218;9.884;2022-10-16T10:22:29;20.00;99.90
16879;DHT22;8556;52.218;9.884;2022-10-16T10:25:23;19.90;99.90
16879;DHT22;8556;52.218;9.884;2022-10-16T10:28:17;20.00;1.00
16879;DHT22;8556;52.218;9.884;2022-10-16T10:30:49;19.70;1.00
16879;DHT22;8556;52.218;9.884;2022-10-16T10:33:22;20.00;24.40
16879;DHT22;8556;52.218;9.884;2022-10-16T10:36:01;19.90;1.00
16879;DHT22;8556;52.218;9.884;2022-10-16T10:38:41;20.00;1.00
16879;DHT22;8556;52.218;9.884;2022-10-16T10:41:32;20.40;1.00
16879;DHT22;8556;52.218;9.884;2022-10-16T10:44:16;20.70;1.00
16879;DHT22;8556;52.218;9.884;2022-10-16T10:46:50;19.90;1.00
16879;DHT22;8556;52.218;9.884;2022-10-16T10:49:39;20.10;1.00
16879;DHT22;8556;52.218;9.884;2022-10-16T10:52:28;20.20;1.00
16879;DHT22;8556;52.218;9.884;2022-10-16T10:55:10;20.50;1.00
16879;DHT22;8556;52.218;9.884;2022-10-16T10:57:48;20.60;1.00
16879;DHT22;8556;52.218;9.884;2022-10-16T11:00:25;20.80;1.00
16879;DHT22;8556;52.218;9.884;2022-10-16T11:03:02;20.70;99.90
16879;DHT22;8556;52.218;9.884;2022-10-16T11:05:42;20.70;99.90
16879;DHT22;8556;52.218;9.884;2022-10-16T11:08:18;21.00;99.90
16879;DHT22;8556;52.218;9.884;2022-10-16T11:10:51;21.00;99.90
16879;DHT22;8556;52.218;9.884;2022-10-16T11:13:26;20.90;99.90
16879;DHT22;8556;52.218;9.884;2022-10-16T11:15:59;21.10;99.90
16879;DHT22;8556;52.218;9.884;2022-10-16T11:18:38;21.40;99.90
16879;DHT22;8556;52.218;9.884;2022-10-16T11:21:13;21.10;99.90
16879;DHT22;8556;52.218;9.884;2022-10-16T11:23:46;21.20;99.90
16879;DHT22;8556;52.218;9.884;2022-10-16T11:26:19;21.50;98.70
16879;DHT22;8556;52.218;9.884;2022-10-16T11:28:49;21.70;1.00
16879;DHT22;8556;52.218;9.884;2022-10-16T11:31:22;21.30;1.00
16879;DHT22;8556;52.218;9.884;2022-10-16T11:34:01;21.10;1.00
16879;DHT22;8556;52.218;9.884;2022-10-16T11:36:35;21.10;1.00
16879;DHT22;8556;52.218;9.884;2022-10-16T11:39:16;21.30;1.00
16879;DHT22;8556;52.218;9.884;2022-10-16T11:41:50;21.50;1.00
16879;DHT22;8556;52.218;9.884;2022-10-16T11:44:36;21.10;1.00
16879;DHT22;8556;52.218;9.884;2022-10-16T11:47:12;21.40;1.00
16879;DHT22;8556;52.218;9.884;2022-10-16T11:49:44;21.50;1.00
16879;DHT22;8556;52.218;9.884;2022-10-16T11:52:19;21.40;1.00
16879;DHT22;8556;52.218;9.884;2022-10-16T11:54:53;20.80;1.00
16879;DHT22;8556;52.218;9.884;2022-10-16T11:57:24;20.80;1.00
16879;DHT22;8556;52.218;9.884;2022-10-16T11:59:57;21.00;1.00
16879;DHT22;8556;52.218;9.884;2022-10-16T12:02:43;20.60;1.00
16879;DHT22;8556;52.218;9.884;2022-10-16T12:05:24;20.80;1.00
16879;DHT22;8556;52.218;9.884;2022-10-16T12:08:02;21.50;1.00
16879;DHT22;8556;52.218;9.884;2022-10-16T12:10:32;21.10;1.00
16879;DHT22;8556;52.218;9.884;2022-10-16T12:13:25;21.20;1.00
16879;DHT22;8556;52.218;9.884;2022-10-16T12:16:07;20.90;1.00
16879;DHT22;8556;52.218;9.884;2022-10-16T12:19:02;21.00;1.00
16879;DHT22;8556;52.218;9.884;2022-10-16T12:21:30;21.30;1.00
16879;DHT22;8556;52.218;9.884;2022-10-16T12:24:01;21.10;1.00
16879;DHT22;8556;52.218;9.884;2022-10-16T12:26:39;20.90;1.00
16879;DHT22;8556;52.218;9.884;2022-10-16T12:29:23;23.40;1.00
16879;DHT22;8556;52.218;9.884;2022-10-16T12:31:50;23.20;1.00
16879;DHT22;8556;52.218;9.884;2022-10-16T12:34:22;21.80;1.00
16879;DHT22;8556;52.218;9.884;2022-10-16T12:36:53;21.60;1.00
16879;DHT22;8556;52.218;9.884;2022-10-16T12:39:24;23.50;1.00
16879;DHT22;8556;52.218;9.884;2022-10-16T12:42:04;24.00;1.00
16879;DHT22;8556;52.218;9.884;2022-10-16T12:44:35;24.60;1.00
16879;DHT22;8556;52.218;9.884;2022-10-16T12:47:18;23.50;1.00
16879;DHT22;8556;52.218;9.884;2022-10-16T12:49:49;21.50;99.90
16879;DHT22;8556;52.218;9.884;2022-10-16T12:52:26;20.90;1.00
16879;DHT22;8556;52.218;9.884;2022-10-16T12:54:59;21.50;1.00
16879;DHT22;8556;52.218;9.884;2022-10-16T12:57:42;21.50;99.90
16879;DHT22;8556;52.218;9.884;2022-10-16T13:00:22;21.50;99.90
16879;DHT22;8556;52.218;9.884;2022-10-16T13:03:23;21.70;99.90
16879;DHT22;8556;52.218;9.884;2022-10-16T13:06:04;21.80;99.90
16879;DHT22;8556;52.218;9.884;2022-10-16T13:08:43;21.10;99.90
16879;DHT22;8556;52.218;9.884;2022-10-16T13:11:21;21.30;99.90
16879;DHT22;8556;52.218;9.884;2022-10-16T13:17:05;21.60;99.90
16879;DHT22;8556;52.218;9.884;2022-10-16T13:19:43;21.20;99.90
16879;DHT22;8556;52.218;9.884;2022-10-16T13:22:16;20.90;99.90
16879;DHT22;8556;52.218;9.884;2022-10-16T13:25:02;21.00;99.90
16879;DHT22;8556;52.218;9.884;2022-10-16T13:27:40;20.80;99.90
16879;DHT22;8556;52.218;9.884;2022-10-16T13:30:15;21.00;99.90
16879;DHT22;8556;52.218;9.884;2022-10-16T13:32:45;20.70;99.90
16879;DHT22;8556;52.218;9.884;2022-10-16T13:35:23;21.00;99.90
16879;DHT22;8556;52.218;9.884;2022-10-16T13:37:50;21.20;99.90
16879;DHT22;8556;52.218;9.884;2022-10-16T13:40:23;20.90;99.90
16879;DHT22;8556;52.218;9.884;2022-10-16T13:42:54;20.50;99.90
16879;DHT22;8556;52.218;9.884;2022-10-16T13:45:24;20.30;99.90
16879;DHT22;8556;52.218;9.884;2022-10-16T13:48:02;20.40;99.90
16879;DHT22;8556;52.218;9.884;2022-10-16T13:50:30;20.80;99.90
16879;DHT22;8556;52.218;9.884;2022-10-16T13:53:06;20.70;99.90
16879;DHT22;8556;52.218;9.884;2022-10-16T13:55:36;20.50;99.90
16879;DHT22;8556;52.218;9.884;2022-10-16T13:58:07;20.10;99.90
16879;DHT22;8556;52.218;9.884;2022-10-16T14:00:55;20.00;99.90
16879;DHT22;8556;52.218;9.884;2022-10-16T14:03:26;19.90;99.90
16879;DHT22;8556;52.218;9.884;2022-10-16T14:06:01;20.00;99.90
16879;DHT22;8556;52.218;9.884;2022-10-16T14:08:31;19.90;99.90
16879;DHT22;8556;52.218;9.884;2022-10-16T14:11:07;19.80;99.90
16879;DHT22;8556;52.218;9.884;2022-10-16T14:13:44;19.60;99.90
16879;DHT22;8556;52.218;9.884;2022-10-16T14:16:31;19.50;99.90
16879;DHT22;8556;52.218;9.884;2022-10-16T14:19:02;19.40;99.90
16879;DHT22;8556;52.218;9.884;2022-10-16T14:21:32;19.40;99.90
16879;DHT22;8556;52.218;9.884;2022-10-16T14:24:11;19.40;99.90
16879;DHT22;8556;52.218;9.884;2022-10-16T14:26:44;19.30;99.90
16879;DHT22;8556;52.218;9.884;2022-10-16T14:29:19;19.20;1.00
16879;DHT22;8556;52.218;9.884;2022-10-16T14:31:58;19.10;1.00
16879;DHT22;8556;52.218;9.884;2022-10-16T14:34:33;19.20;1.00
16879;DHT22;8556;52.218;9.884;2022-10-16T14:37:13;19.20;1.00
16879;DHT22;8556;52.218;9.884;2022-10-16T14:39:49;19.30;1.00
16879;DHT22;8556;52.218;9.884;2022-10-16T14:42:24;19.40;99.90
16879;DHT22;8556;52.218;9.884;2022-10-16T14:44:53;19.40;99.90
16879;DHT22;8556;52.218;9.884;2022-10-16T14:47:23;19.50;99.90
16879;DHT22;8556;52.218;9.884;2022-10-16T14:49:52;19.50;99.90
16879;DHT22;8556;52.218;9.884;2022-10-16T14:52:22;19.50;99.90
16879;DHT22;8556;52.218;9.884;2022-10-16T14:54:51;19.50;99.90
16879;DHT22;8556;52.218;9.884;2022-10-16T14:57:42;19.50;99.90
16879;DHT22;8556;52.218;9.884;2022-10-16T15:00:23;19.50;99.90
16879;DHT22;8556;52.218;9.884;2022-10-16T15:03:30;19.50;99.90
16879;DHT22;8556;52.218;9.884;2022-10-16T15:06:00;19.40;99.90
16879;DHT22;8556;52.218;9.884;2022-10-16T15:08:34;19.40;99.90
16879;DHT22;8556;52.218;9.884;2022-10-16T15:11:10;19.30;99.90
16879;DHT22;8556;52.218;9.884;2022-10-16T15:13:45;19.20;99.90
16879;DHT22;8556;52.218;9.884;2022-10-16T15:16:15;19.20;99.90
16879;DHT22;8556;52.218;9.884;2022-10-16T15:18:44;19.20;99.90
16879;DHT22;8556;52.218;9.884;2022-10-16T15:21:20;19.00;99.90
16879;DHT22;8556;52.218;9.884;2022-10-16T15:23:57;18.90;99.90
16879;DHT22;8556;52.218;9.884;2022-10-16T15:26:25;18.90;99.90
16879;DHT22;8556;52.218;9.884;2022-10-16T15:28:53;18.90;1.00
16879;DHT22;8556;52.218;9.884;2022-10-16T15:31:23;18.70;1.00
16879;DHT22;8556;52.218;9.884;2022-10-16T15:33:59;18.60;1.00
16879;DHT22;8556;52.218;9.884;2022-10-16T15:36:31;18.50;1.00
16879;DHT22;8556;52.218;9.884;2022-10-16T15:39:02;18.40;1.00
16879;DHT22;8556;52.218;9.884;2022-10-16T15:41:30;18.30;1.00
16879;DHT22;8556;52.218;9.884;2022-10-16T15:44:00;18.10;74.90
16879;DHT22;8556;52.218;9.884;2022-10-16T15:46:38;18.10;99.90
16879;DHT22;8556;52.218;9.884;2022-10-16T15:49:09;17.90;99.90
16879;DHT22;8556;52.218;9.884;2022-10-16T15:51:41;17.80;1.00
16879;DHT22;8556;52.218;9.884;2022-10-16T15:54:20;17.70;1.00
16879;DHT22;8556;52.218;9.884;2022-10-16T15:56:51;17.50;1.00
16879;DHT22;8556;52.218;9.884;2022-10-16T15:59:18;17.40;1.00
16879;DHT22;8556;52.218;9.884;2022-10-16T16:01:45;17.20;1.00
16879;DHT22;8556;52.218;9.884;2022-10-16T16:04:13;17.10;1.00
16879;DHT22;8556;52.218;9.884;2022-10-16T16:06:42;16.90;99.90
16879;DHT22;8556;52.218;9.884;2022-10-16T16:09:10;16.80;1.00
16879;DHT22;8556;52.218;9.884;2022-10-16T16:11:39;16.80;1.00
16879;DHT22;8556;52.218;9.884;2022-10-16T16:14:11;16.70;2.40
16879;DHT22;8556;52.218;9.884;2022-10-16T16:16:45;16.80;1.00
16879;DHT22;8556;52.218;9.884;2022-10-16T16:19:14;16.70;99.90
16879;DHT22;8556;52.218;9.884;2022-10-16T16:21:50;16.50;1.00
16879;DHT22;8556;52.218;9.884;2022-10-16T16:24:17;16.50;49.00
16879;DHT22;8556;52.218;9.884;2022-10-16T16:26:45;16.30;1.00
16879;DHT22;8556;52.218;9.884;2022-10-16T16:29:19;16.20;99.90